Airfield :
LOGIN :

Register | Disclaimer

   EN    FR    IT 

 










Legend :    VFR   Marginal VFR   IFR   Intensive IFR   Very Intensive IFR
Visi :
Ceiling :
>= 8 km
>= 3000ft
5 to 8 km
1000 to 3000 ft
1500m to 5 km
500 to 1000 ft
800 to 1500m
200 to 500 ft
< 800m
< 200 ft
Symbols :   Thunderstorms  Fog  Heavy snow  Heavy precipitations  Wind > 20 kt
SIGMETs :     Misc.  Thunderstorms  Icing  Turbulence  Mountain Waves  Volcanic Ashes







- Airport Elevation : 782 ft
- IATA code : BGY


LIME - Orio al Serio International - Bergamo

CURRENT METAR :
  • 171420Z 27005KT 9999 FEW100 06/M17 Q1018

EXPIRED METARs :
  • 171350Z 26004KT 210V290 9999 FEW100 06/M18 Q1017
  • 171320Z 27004KT 210V330 9999 SCT100 07/M17 Q1017
  • 171250Z 26003KT 210V300 9999 SCT100 06/M18 Q1018
  • 171220Z 26004KT 180V290 9999 SCT100 06/M18 Q1018
  • 171150Z 26005KT 9999 SCT100 05/M18 Q1018

TAF TAF LIME
Valid from the 17 at 12:00 until the 18 at 12:00 UTC


171100Z 1712/1812 VRB05KT CAVOK
No reported NOTAMs for that airfield.
1 SIGMET reported for the Milano FIR (LIMM) :
 
Severe icing
LIMM SIGMET 4 VALID 171120/171520 LIMM- LIMM MILANO FIR SEV ICE FCST WI N4451 E01308 - N4407 E01031 - N4342 E01102 - N4328 E01430 - N4431 E01317 - N4451 E01308 BLW FL100 STNR NC=



MET'MAP, your aeronautical weather chart ! - Copyright ORBIFLY December 2007 - Disclaimer

ORBIFLY MET'MAP TEAM :

Programming & Development : Alexandra Zaïnal
Concept & Development : Baudouin d'Aumeries
Co-Development & Prog : Marc-Olivier Méhu
Technical & hardware support : Manuel Goepfert

Contact : metmap@orbifly.com




SOURCES & CREDITS :

   NOAA